Time;durP1;ratioP1;P1;durP2;ratioP2;P2;SDS_P1;SDS_P2;PMS_P1;PMS_P2;Temp;Humidity;BMP_temperature;BMP_pressure;BME280_temperature;BME280_humidity;BME280_pressure;Samples;Min_cycle;Max_cycle;Signal;HPM_P1;HPM_P2
2021/05/16 00:00:17;;;;;;;7.43;0.73;;;;;;;6.97;80.51;95578.69;5034537;28;20740;-35
2021/05/16 00:02:45;;;;;;;0.90;0.70;;;;;;;6.97;80.45;95579.53;5035825;28;20430;-35
2021/05/16 00:05:14;;;;;;;1.93;1.00;;;;;;;6.96;80.71;95585.69;5034579;28;20760;-35
2021/05/16 00:07:42;;;;;;;6.73;1.00;;;;;;;7.03;80.50;95597.31;5032438;28;20915;-41
2021/05/16 00:10:11;;;;;;;4.23;1.10;;;;;;;6.99;80.70;95595.03;5039168;28;20499;-44
2021/05/16 00:12:39;;;;;;;1.00;0.80;;;;;;;7.00;80.59;95592.34;5037350;28;20951;-35
2021/05/16 00:15:10;;;;;;;4.40;0.93;;;;;;;7.03;80.78;95583.47;5036869;28;20445;-35
2021/05/16 00:17:38;;;;;;;11.63;1.57;;;;;;;7.08;80.83;95595.22;5035178;28;20470;-35
2021/05/16 00:20:10;;;;;;;1.87;1.30;;;;;;;7.06;80.45;95594.50;5035562;28;20456;-36
2021/05/16 00:22:38;;;;;;;1.37;0.80;;;;;;;7.15;80.35;95598.22;5039193;28;20468;-35
2021/05/16 00:25:16;;;;;;;3.90;1.20;;;;;;;7.16;80.65;95597.28;5037325;28;20441;-41
2021/05/16 00:27:45;;;;;;;3.03;0.90;;;;;;;7.10;80.53;95592.53;5038455;28;20774;-36
2021/05/16 00:30:16;;;;;;;1.73;0.80;;;;;;;7.09;80.70;95596.88;5037135;28;20446;-40
2021/05/16 00:32:44;;;;;;;3.50;0.97;;;;;;;6.97;81.40;95571.72;5044145;28;20842;-41
2021/05/16 00:35:17;;;;;;;3.73;0.80;;;;;;;7.11;81.70;95595.03;5038532;28;20458;-35
2021/05/16 00:37:44;;;;;;;1.20;0.70;;;;;;;7.09;81.94;95601.25;5035721;28;20430;-41
2021/05/16 00:40:13;;;;;;;2.70;0.93;;;;;;;7.05;81.98;95590.22;5037480;28;20434;-35
2021/05/16 00:42:41;;;;;;;1.63;0.80;;;;;;;7.04;82.11;95598.16;5037698;28;21124;-44
2021/05/16 00:45:10;;;;;;;1.37;0.70;;;;;;;7.07;82.09;95595.31;5037367;28;20985;-36
2021/05/16 00:47:39;;;;;;;3.63;0.80;;;;;;;7.03;82.17;95596.50;5038077;28;20457;-35
2021/05/16 00:50:08;;;;;;;1.10;0.60;;;;;;;6.98;82.65;95602.03;5038690;28;20853;-41
2021/05/16 00:52:40;;;;;;;8.77;1.53;;;;;;;6.98;82.93;95588.16;5037764;28;20788;-35
2021/05/16 00:55:09;;;;;;;1.23;0.80;;;;;;;7.04;82.92;95585.16;5039578;28;20815;-35
2021/05/16 00:57:38;;;;;;;4.57;0.70;;;;;;;7.06;82.50;95578.06;5043166;28;20853;-35
2021/05/16 01:00:08;;;;;;;3.93;1.10;;;;;;;7.11;82.60;95581.16;5039518;28;20997;-34
2021/05/16 01:02:35;;;;;;;6.20;0.70;;;;;;;7.13;82.32;95587.94;5038513;28;20812;-41
2021/05/16 01:05:03;;;;;;;4.47;0.83;;;;;;;7.12;81.88;95580.22;5038789;28;20803;-41
2021/05/16 01:07:31;;;;;;;2.63;0.70;;;;;;;7.19;81.67;95583.22;5036448;28;20458;-35
2021/05/16 01:10:00;;;;;;;1.57;0.93;;;;;;;7.17;82.09;95575.50;5041547;28;20448;-41
2021/05/16 01:12:32;;;;;;;1.33;0.80;;;;;;;7.16;81.85;95568.66;5035925;28;20805;-35
2021/05/16 01:15:03;;;;;;;5.53;1.00;;;;;;;7.17;81.94;95572.91;5037015;28;20437;-42
2021/05/16 01:17:31;;;;;;;3.90;0.73;;;;;;;7.21;81.93;95578.72;5038240;28;21003;-34
2021/05/16 01:19:58;;;;;;;5.23;1.03;;;;;;;7.19;82.21;95575.41;5036062;28;20903;-34
2021/05/16 01:22:26;;;;;;;4.33;1.00;;;;;;;7.15;82.31;95569.56;5038561;28;20863;-34
2021/05/16 01:24:53;;;;;;;4.40;0.83;;;;;;;7.13;82.55;95561.91;5040455;28;20493;-38
2021/05/16 01:27:21;;;;;;;1.80;1.00;;;;;;;7.22;82.36;95560.38;5036935;28;20462;-40
2021/05/16 01:29:48;;;;;;;2.33;1.00;;;;;;;6.92;81.95;95509.59;5038627;28;20437;-34
2021/05/16 01:32:20;;;;;;;2.80;1.13;;;;;;;7.26;82.17;95563.63;5036536;28;20850;-40
2021/05/16 01:34:48;;;;;;;7.53;1.20;;;;;;;7.23;81.97;95559.47;5037883;28;20755;-34
2021/05/16 01:37:17;;;;;;;7.23;1.13;;;;;;;7.28;81.90;95559.13;5036265;28;20472;-34
2021/05/16 01:39:48;;;;;;;5.27;1.00;;;;;;;7.28;81.92;95556.53;5037918;28;20433;-35
2021/05/16 01:42:16;;;;;;;3.40;1.47;;;;;;;7.31;81.95;95551.94;5036262;28;20542;-40
2021/05/16 01:44:44;;;;;;;4.93;1.50;;;;;;;7.29;82.21;95555.56;5036592;28;20434;-40
2021/05/16 01:47:12;;;;;;;1.80;0.97;;;;;;;7.30;82.00;95560.66;5036556;28;20458;-41
2021/05/16 01:49:42;;;;;;;2.93;1.10;;;;;;;7.31;81.62;95556.28;5036842;28;20426;-40
2021/05/16 01:52:10;;;;;;;6.87;1.17;;;;;;;7.32;81.71;95556.19;5035898;28;20504;-34
2021/05/16 01:54:38;;;;;;;1.87;0.80;;;;;;;7.35;81.38;95555.16;5036981;28;20779;-40
2021/05/16 01:57:14;;;;;;;9.07;1.00;;;;;;;7.36;81.41;95561.19;5037268;28;20465;-34
2021/05/16 01:59:46;;;;;;;8.40;1.03;;;;;;;7.37;81.43;95562.81;5035991;28;20743;-34
2021/05/16 02:02:16;;;;;;;2.97;1.20;;;;;;;7.33;81.64;95562.22;5036293;28;20465;-34
2021/05/16 02:04:45;;;;;;;5.77;1.00;;;;;;;7.40;81.28;95560.00;5035470;28;20477;-34
2021/05/16 02:07:15;;;;;;;3.90;1.30;;;;;;;7.20;81.79;95541.44;5036178;28;20888;-41
2021/05/16 02:09:43;;;;;;;5.80;1.23;;;;;;;7.23;82.01;95562.06;5036146;28;20524;-40
2021/05/16 02:12:16;;;;;;;3.47;0.70;;;;;;;7.33;81.87;95557.84;5034591;28;21116;-34
2021/05/16 02:14:45;;;;;;;6.57;0.97;;;;;;;7.29;81.78;95551.22;5032888;28;20798;-34
2021/05/16 02:17:14;;;;;;;2.33;1.00;;;;;;;7.31;82.33;95570.16;5033819;28;20826;-43
2021/05/16 02:19:42;;;;;;;3.30;1.40;;;;;;;7.17;82.55;95562.47;5032647;28;20415;-34
2021/05/16 02:22:10;;;;;;;4.97;1.47;;;;;;;7.24;82.90;95563.72;5036212;28;20570;-34
2021/05/16 02:24:37;;;;;;;3.93;1.10;;;;;;;7.25;83.34;95569.75;5037679;28;20434;-34
2021/05/16 02:27:05;;;;;;;5.47;1.17;;;;;;;7.30;83.26;95568.47;5035629;28;20500;-34
2021/05/16 02:29:33;;;;;;;4.10;1.57;;;;;;;7.30;83.83;95565.06;5036703;28;20701;-34
2021/05/16 02:32:01;;;;;;;5.13;1.53;;;;;;;7.22;83.59;95573.41;5035767;28;20800;-41
2021/05/16 02:34:30;;;;;;;1.87;1.00;;;;;;;7.20;84.45;95577.06;5037415;28;20761;-41
2021/05/16 02:36:57;;;;;;;2.03;1.10;;;;;;;7.17;84.62;95570.28;5036447;28;20536;-34
2021/05/16 02:39:24;;;;;;;20.63;2.20;;;;;;;7.13;84.40;95569.72;5036900;28;20926;-34
2021/05/16 02:41:52;;;;;;;6.90;1.10;;;;;;;7.17;85.10;95580.72;5037127;28;20481;-34
2021/05/16 02:44:19;;;;;;;2.50;0.90;;;;;;;7.10;84.93;95577.72;5042221;28;20828;-35
2021/05/16 02:46:48;;;;;;;6.77;1.00;;;;;;;6.99;86.31;95574.22;5035731;28;20470;-35
2021/05/16 02:49:15;;;;;;;3.10;1.23;;;;;;;7.06;86.08;95572.84;5037153;28;20754;-40
2021/05/16 02:51:43;;;;;;;2.80;1.07;;;;;;;7.06;86.50;95570.25;5036463;28;20462;-34
2021/05/16 02:54:10;;;;;;;4.30;1.13;;;;;;;7.08;86.27;95578.78;5036143;28;20452;-40
2021/05/16 02:56:38;;;;;;;2.57;1.40;;;;;;;7.08;86.47;95568.38;5038759;28;20710;-41
2021/05/16 02:59:05;;;;;;;4.20;1.03;;;;;;;7.09;86.44;95570.84;5036156;28;21144;-40
2021/05/16 03:01:32;;;;;;;2.60;1.13;;;;;;;7.05;86.37;95566.78;5035187;28;20765;-34
2021/05/16 03:04:01;;;;;;;8.80;1.50;;;;;;;7.03;86.45;95566.06;5036235;28;21007;-34
2021/05/16 03:06:29;;;;;;;4.90;1.50;;;;;;;7.06;86.11;95557.22;5035331;28;20855;-40
2021/05/16 03:08:56;;;;;;;6.60;1.40;;;;;;;6.98;86.39;95554.31;5036096;28;20871;-40
2021/05/16 03:11:23;;;;;;;5.10;1.23;;;;;;;7.03;86.31;95549.63;5034952;28;20465;-41
2021/05/16 03:13:51;;;;;;;12.60;1.40;;;;;;;7.00;86.61;95545.47;5036375;28;21090;-40
2021/05/16 03:16:18;;;;;;;1.47;1.10;;;;;;;7.13;86.49;95551.47;5035623;28;21139;-40
2021/05/16 03:18:46;;;;;;;2.33;1.00;;;;;;;6.98;86.95;95538.69;5032971;28;20969;-34
2021/05/16 03:21:46;;;;;;;9.70;1.73;;;;;;;7.05;86.72;95545.13;5036130;28;20693;-43
2021/05/16 03:24:16;;;;;;;10.97;1.40;;;;;;;6.97;86.89;95529.25;5034483;28;20864;-34
2021/05/16 03:26:45;;;;;;;2.30;1.30;;;;;;;6.70;87.41;95497.28;5031052;28;20462;-41
2021/05/16 03:29:13;;;;;;;4.70;1.30;;;;;;;6.96;87.52;95543.19;5036421;28;20908;-34
2021/05/16 03:31:41;;;;;;;5.47;1.93;;;;;;;7.00;87.39;95544.63;5036010;28;21058;-34
2021/05/16 03:34:11;;;;;;;5.33;1.50;;;;;;;7.03;87.38;95547.03;5035904;28;20948;-40
2021/05/16 03:36:39;;;;;;;3.30;1.40;;;;;;;6.72;87.19;95504.94;5035075;28;20807;-40
2021/05/16 03:39:09;;;;;;;4.60;1.47;;;;;;;6.86;87.15;95533.44;5036055;28;20546;-40
2021/05/16 03:41:36;;;;;;;8.43;1.57;;;;;;;6.81;87.02;95522.53;5033419;28;20819;-34
2021/05/16 03:44:05;;;;;;;6.30;1.90;;;;;;;6.49;87.10;95460.59;5035201;28;20896;-39
2021/05/16 03:46:33;;;;;;;4.50;1.37;;;;;;;7.04;87.26;95546.09;5034684;28;20959;-38
2021/05/16 03:49:01;;;;;;;3.53;1.33;;;;;;;6.92;87.71;95548.63;5038305;28;20512;-33
2021/05/16 03:51:29;;;;;;;3.57;1.10;;;;;;;7.06;87.00;95565.03;5031725;28;20462;-39
2021/05/16 03:53:56;;;;;;;5.63;1.50;;;;;;;7.07;87.76;95553.66;5040962;28;20885;-39
2021/05/16 03:56:25;;;;;;;6.53;1.50;;;;;;;7.10;87.86;95553.47;5033800;28;20453;-33
2021/05/16 03:58:52;;;;;;;2.93;1.30;;;;;;;7.07;88.24;95553.66;5034360;28;20422;-39
2021/05/16 04:01:20;;;;;;;6.80;1.33;;;;;;;7.10;88.20;95556.91;5038937;28;20456;-33
2021/05/16 04:03:48;;;;;;;5.93;1.57;;;;;;;6.98;88.08;95531.75;5047652;23;21463;-33
2021/05/16 04:06:15;;;;;;;17.07;1.77;;;;;;;7.09;88.14;95551.78;4966019;23;20777;-40
2021/05/16 04:08:43;;;;;;;3.50;1.20;;;;;;;7.09;87.99;95546.59;4967990;28;20935;-34
2021/05/16 04:11:10;;;;;;;9.93;1.97;;;;;;;7.07;88.12;95549.28;4966451;28;20764;-40
2021/05/16 04:13:39;;;;;;;2.40;1.27;;;;;;;7.01;88.45;95549.72;4967743;28;20830;-35
2021/05/16 04:16:06;;;;;;;7.97;1.17;;;;;;;6.98;88.78;95546.50;4963608;28;20761;-40
2021/05/16 04:18:34;;;;;;;6.13;1.40;;;;;;;7.05;88.21;95553.78;4969289;28;20456;-34
2021/05/16 04:21:03;;;;;;;7.03;1.60;;;;;;;7.04;88.90;95553.91;4969156;28;20925;-34
2021/05/16 04:23:31;;;;;;;5.07;1.90;;;;;;;7.06;88.02;95549.41;4963709;28;21008;-34
2021/05/16 04:25:58;;;;;;;1.50;0.90;;;;;;;7.21;87.86;95557.88;4968508;28;20473;-41
2021/05/16 04:28:26;;;;;;;4.30;1.60;;;;;;;7.08;88.31;95547.53;4966303;28;20518;-34
2021/05/16 04:30:54;;;;;;;5.37;1.50;;;;;;;7.14;88.20;95552.31;4966187;28;20999;-40
2021/05/16 04:33:22;;;;;;;6.10;1.47;;;;;;;7.13;88.15;95551.47;4961722;28;20824;-34
2021/05/16 04:35:50;;;;;;;5.53;1.10;;;;;;;7.13;88.32;95553.22;4961967;28;20979;-40
2021/05/16 04:38:17;;;;;;;5.17;1.47;;;;;;;7.13;88.43;95542.81;4961830;28;20442;-40
2021/05/16 04:40:46;;;;;;;3.37;1.13;;;;;;;7.26;87.96;95540.16;4966864;28;20991;-34
2021/05/16 04:43:14;;;;;;;3.47;1.17;;;;;;;7.26;87.95;95545.38;4971355;28;20963;-40
2021/05/16 04:45:42;;;;;;;4.70;1.50;;;;;;;7.29;87.58;95538.19;4967871;28;20962;-41
2021/05/16 04:48:10;;;;;;;1.33;0.90;;;;;;;7.40;87.30;95537.38;4961206;28;20453;-34
2021/05/16 04:50:38;;;;;;;7.97;1.50;;;;;;;7.46;87.33;95549.13;4962678;28;20849;-40
2021/05/16 04:53:05;;;;;;;4.93;1.30;;;;;;;7.59;86.64;95547.31;4963154;28;20808;-34
2021/05/16 04:55:32;;;;;;;3.30;1.20;;;;;;;7.71;85.99;95549.00;4970797;28;21142;-34
2021/05/16 04:58:00;;;;;;;9.40;0.90;;;;;;;7.68;85.97;95544.03;4965110;28;20440;-41
2021/05/16 05:00:27;;;;;;;4.40;1.20;;;;;;;7.68;85.65;95551.84;4964915;28;21178;-40
2021/05/16 05:02:55;;;;;;;3.83;0.90;;;;;;;7.60;85.90;95559.38;4969795;28;21057;-40
2021/05/16 05:05:23;;;;;;;1.97;1.10;;;;;;;7.59;86.06;95562.13;4967964;28;20453;-40
2021/05/16 05:07:51;;;;;;;6.93;1.10;;;;;;;7.48;86.03;95550.69;4970686;28;20837;-34
2021/05/16 05:10:18;;;;;;;3.07;1.10;;;;;;;7.57;86.21;95559.63;4962051;28;20877;-41
2021/05/16 05:12:46;;;;;;;4.80;1.47;;;;;;;7.51;86.82;95547.03;4967829;28;20455;-34
2021/05/16 05:15:13;;;;;;;2.70;1.00;;;;;;;7.60;86.69;95569.78;4971640;28;20502;-33
2021/05/16 05:17:41;;;;;;;3.33;1.10;;;;;;;7.69;87.10;95561.31;4966375;28;20861;-40
2021/05/16 05:20:09;;;;;;;4.93;1.27;;;;;;;7.68;87.09;95564.88;4968255;28;20449;-34
2021/05/16 05:22:38;;;;;;;4.70;1.00;;;;;;;7.62;87.37;95577.50;4961102;28;21016;-41
2021/05/16 05:25:07;;;;;;;7.93;1.90;;;;;;;7.52;88.66;95577.34;4967412;28;20473;-40
2021/05/16 05:27:34;;;;;;;2.30;1.10;;;;;;;7.11;89.89;95529.94;4964356;28;20467;-34
2021/05/16 05:30:02;;;;;;;2.73;0.97;;;;;;;7.45;89.50;95561.34;4964457;28;20425;-34
2021/05/16 05:32:29;;;;;;;5.27;1.00;;;;;;;7.43;89.12;95549.34;4967517;28;20468;-41
2021/05/16 05:34:57;;;;;;;3.10;1.20;;;;;;;7.55;89.16;95555.44;4965579;28;20887;-41
2021/05/16 05:37:24;;;;;;;5.10;1.20;;;;;;;7.65;88.23;95559.06;4966654;28;20506;-41
2021/05/16 05:39:53;;;;;;;4.50;0.80;;;;;;;7.61;88.43;95552.41;4964433;28;21082;-40
2021/05/16 05:42:23;;;;;;;2.17;0.90;;;;;;;7.68;88.42;95554.44;4966727;28;21003;-41
2021/05/16 05:44:51;;;;;;;4.10;1.07;;;;;;;7.72;88.26;95568.91;4974986;28;20908;-34
2021/05/16 05:47:18;;;;;;;7.80;1.20;;;;;;;7.66;89.01;95569.38;4965520;28;20819;-34
2021/05/16 05:49:46;;;;;;;5.20;1.60;;;;;;;7.81;88.17;95574.38;4968560;28;20779;-34
2021/05/16 05:52:13;;;;;;;2.60;1.23;;;;;;;7.80;87.84;95572.72;4962001;28;21041;-41
2021/05/16 05:54:41;;;;;;;5.93;1.40;;;;;;;7.76;88.79;95572.09;4966191;28;20662;-41
2021/05/16 05:57:09;;;;;;;2.63;1.30;;;;;;;7.95;88.11;95570.75;4964092;28;20465;-34
2021/05/16 05:59:36;;;;;;;4.00;0.97;;;;;;;7.88;87.72;95565.19;4962823;28;20793;-34
2021/05/16 06:02:04;;;;;;;2.73;1.10;;;;;;;7.80;86.62;95516.22;4968655;28;20464;-34
2021/05/16 06:04:31;;;;;;;2.07;0.80;;;;;;;8.16;87.24;95561.31;4962567;28;20473;-34
2021/05/16 06:06:59;;;;;;;3.23;1.03;;;;;;;8.29;86.92;95561.22;4968397;28;20562;-35
2021/05/16 06:09:27;;;;;;;2.83;0.87;;;;;;;8.58;85.80;95572.06;4969276;28;20504;-41
2021/05/16 06:11:54;;;;;;;7.20;2.20;;;;;;;8.64;84.30;95568.16;4965195;28;20465;-41
2021/05/16 06:14:24;;;;;;;3.90;1.80;;;;;;;8.84;83.04;95566.59;4960194;28;20904;-41
2021/05/16 06:17:02;;;;;;;4.27;1.10;;;;;;;9.00;83.13;95568.88;4946371;28;20464;-34
2021/05/16 06:19:32;;;;;;;3.23;0.90;;;;;;;9.15;81.88;95565.00;4941539;28;20485;-41
2021/05/16 06:22:00;;;;;;;1.77;0.73;;;;;;;9.00;82.03;95556.63;4958418;28;21043;-34
2021/05/16 06:24:28;;;;;;;3.60;0.70;;;;;;;9.58;81.73;95565.97;4959562;28;20814;-36
2021/05/16 06:26:56;;;;;;;1.20;0.80;;;;;;;9.78;80.26;95530.34;4967743;28;21030;-34
2021/05/16 06:29:25;;;;;;;2.30;0.90;;;;;;;10.09;79.07;95560.03;4968182;28;20834;-41
2021/05/16 06:31:52;;;;;;;2.00;0.87;;;;;;;9.75;79.41;95567.22;4943980;28;20551;-42
2021/05/16 06:34:20;;;;;;;4.40;1.00;;;;;;;9.76;79.04;95566.25;4963065;28;20430;-44
2021/05/16 06:36:48;;;;;;;4.13;0.87;;;;;;;9.46;79.84;95558.16;4964782;28;20462;-35
2021/05/16 06:39:16;;;;;;;3.30;0.80;;;;;;;9.42;78.50;95532.41;4966558;28;21212;-41
2021/05/16 06:41:43;;;;;;;3.37;0.80;;;;;;;9.45;79.16;95547.84;4961520;28;20445;-35
2021/05/16 06:44:11;;;;;;;3.60;1.13;;;;;;;9.42;79.81;95571.63;4965210;28;20466;-35
2021/05/16 06:46:39;;;;;;;5.47;0.90;;;;;;;9.43;78.80;95573.28;4961421;28;20450;-35
2021/05/16 06:49:06;;;;;;;1.87;0.60;;;;;;;9.55;79.49;95577.53;4959748;28;20838;-35
2021/05/16 06:51:35;;;;;;;5.03;1.10;;;;;;;9.30;77.73;95568.19;4957746;28;20523;-35
2021/05/16 06:54:04;;;;;;;3.13;0.77;;;;;;;9.50;78.22;95566.59;4965379;28;20434;-35
2021/05/16 06:56:32;;;;;;;1.80;0.60;;;;;;;9.69;76.17;95566.75;4945622;28;20466;-35
2021/05/16 06:58:59;;;;;;;3.47;0.90;;;;;;;9.90;75.58;95572.03;4965329;28;20432;-35
2021/05/16 07:01:27;;;;;;;7.57;1.33;;;;;;;9.89;77.15;95578.19;4963565;28;20472;-35
2021/05/16 07:03:55;;;;;;;4.10;1.00;;;;;;;9.87;76.90;95572.25;4968479;28;20828;-41
2021/05/16 07:06:23;;;;;;;4.30;0.80;;;;;;;9.44;75.17;95475.63;4964766;28;20835;-35
2021/05/16 07:08:50;;;;;;;3.10;1.00;;;;;;;10.12;75.04;95549.31;4965687;28;20991;-34
2021/05/16 07:11:18;;;;;;;2.50;0.90;;;;;;;10.15;74.88;95569.16;4960237;28;20467;-41
2021/05/16 07:13:46;;;;;;;3.90;0.90;;;;;;;9.88;76.48;95568.72;4964273;28;20753;-35
2021/05/16 07:16:14;;;;;;;9.40;4.43;;;;;;;9.83;75.41;95570.88;4966611;28;20790;-35
2021/05/16 07:18:42;;;;;;;5.83;1.00;;;;;;;9.84;75.87;95580.38;4965298;28;21038;-41
2021/05/16 07:21:12;;;;;;;4.17;0.87;;;;;;;9.89;76.08;95580.81;4966179;28;20537;-41
2021/05/16 07:23:39;;;;;;;2.20;0.70;;;;;;;9.83;75.92;95573.47;4961216;28;20962;-41
2021/05/16 07:26:07;;;;;;;3.30;0.87;;;;;;;10.02;75.88;95570.19;4964784;28;20461;-43
2021/05/16 07:28:34;;;;;;;4.10;1.20;;;;;;;10.15;74.82;95566.53;4964949;28;20960;-35
2021/05/16 07:31:02;;;;;;;1.90;0.80;;;;;;;10.43;73.88;95565.09;4962553;28;20975;-41
2021/05/16 07:33:29;;;;;;;5.10;0.90;;;;;;;10.36;74.05;95551.69;4967212;28;20429;-41
2021/05/16 07:35:58;;;;;;;4.70;0.97;;;;;;;10.44;73.69;95566.75;4965023;28;20464;-41
2021/05/16 07:38:27;;;;;;;6.20;1.03;;;;;;;10.36;73.17;95572.63;4969221;28;20830;-41
2021/05/16 07:40:54;;;;;;;2.23;0.80;;;;;;;10.48;72.84;95568.97;4965838;28;20469;-35
2021/05/16 07:43:24;;;;;;;1.77;0.90;;;;;;;10.36;70.94;95569.19;4943807;28;20505;-35
2021/05/16 07:45:54;;;;;;;1.20;1.00;;;;;;;10.11;71.90;95568.56;4968243;28;20499;-34
2021/05/16 07:48:28;;;;;;;7.80;1.27;;;;;;;10.15;73.07;95574.38;4964323;28;20633;-40
2021/05/16 07:50:56;;;;;;;10.50;0.93;;;;;;;10.15;71.41;95577.00;4971575;28;20983;-43
2021/05/16 07:53:23;;;;;;;0.90;0.73;;;;;;;10.27;70.58;95562.88;4963713;28;20765;-45
2021/05/16 07:55:52;;;;;;;3.17;1.07;;;;;;;10.72;69.13;95582.72;4968076;28;20461;-34
2021/05/16 07:58:19;;;;;;;4.43;1.40;;;;;;;10.55;69.56;95571.09;4971260;28;20511;-34
2021/05/16 08:00:47;;;;;;;1.63;0.80;;;;;;;10.96;68.22;95564.91;4965172;28;20966;-34
2021/05/16 08:03:36;;;;;;;9.80;1.90;;;;;;;11.42;66.57;95571.34;4950371;28;20973;-41
2021/05/16 08:06:09;;;;;;;3.50;1.00;;;;;;;11.46;65.05;95579.78;4908844;28;20461;-35
2021/05/16 08:08:37;;;;;;;0.90;0.60;;;;;;;11.61;64.30;95562.69;4911099;29;20501;-41
2021/05/16 08:11:08;;;;;;;3.53;0.70;;;;;;;11.42;63.44;95515.47;4911935;29;20969;-35
2021/05/16 08:13:36;;;;;;;3.57;1.00;;;;;;;11.78;63.61;95555.94;4909097;29;20837;-40
2021/05/16 08:16:04;;;;;;;3.63;0.80;;;;;;;12.23;62.37;95562.41;4912393;28;20532;-41
2021/05/16 08:18:31;;;;;;;7.07;0.80;;;;;;;12.20;63.31;95552.22;4908810;29;20460;-41
2021/05/16 08:20:59;;;;;;;6.07;1.00;;;;;;;12.76;60.95;95543.50;4911072;28;20463;-42
2021/05/16 08:23:27;;;;;;;1.07;0.60;;;;;;;12.33;60.72;95555.38;4913759;28;20489;-35
2021/05/16 08:25:54;;;;;;;5.50;0.83;;;;;;;11.82;62.59;95546.00;4907663;29;21214;-35
2021/05/16 08:28:25;;;;;;;1.00;0.67;;;;;;;11.55;63.91;95555.38;4910189;29;20428;-34
2021/05/16 08:30:52;;;;;;;1.80;0.73;;;;;;;11.57;64.04;95563.94;4904954;29;21012;-37
2021/05/16 08:33:20;;;;;;;2.40;0.97;;;;;;;11.55;65.58;95558.00;4914945;29;20863;-35
2021/05/16 08:35:48;;;;;;;14.23;1.30;;;;;;;11.63;66.15;95550.28;4907776;29;20531;-34
2021/05/16 08:38:16;;;;;;;3.60;1.10;;;;;;;11.56;65.48;95557.03;4910579;29;20763;-40
2021/05/16 08:40:43;;;;;;;1.77;0.70;;;;;;;11.91;63.72;95549.63;4912930;29;20795;-35
2021/05/16 08:43:11;;;;;;;1.17;0.70;;;;;;;11.49;64.78;95555.94;4910609;29;20444;-34
2021/05/16 08:45:54;;;;;;;8.83;1.10;;;;;;;11.85;63.31;95553.59;4918074;28;20969;-33
2021/05/16 08:48:29;;;;;;;3.47;0.90;;;;;;;12.21;62.28;95545.97;4948861;28;20490;-34
2021/05/16 08:50:57;;;;;;;3.20;1.00;;;;;;;11.93;61.98;95551.13;4938121;28;20479;-35
2021/05/16 08:53:24;;;;;;;3.00;1.20;;;;;;;11.77;63.02;95551.66;5002410;23;21161;-41
2021/05/16 08:55:52;;;;;;;7.50;1.40;;;;;;;12.03;62.27;95543.25;4977056;28;20993;-41
2021/05/16 08:58:19;;;;;;;9.63;1.23;;;;;;;12.17;61.39;95548.06;4962033;28;20449;-42
2021/05/16 09:00:48;;;;;;;6.60;1.90;;;;;;;12.34;61.03;95535.19;4975378;28;20570;-41
2021/05/16 09:03:16;;;;;;;6.23;1.67;;;;;;;12.75;60.10;95543.63;4977365;28;20956;-41
2021/05/16 09:05:45;;;;;;;8.73;1.30;;;;;;;12.50;59.56;95537.22;4977181;28;20844;-42
2021/05/16 09:08:17;;;;;;;6.30;1.20;;;;;;;12.63;59.08;95541.16;4978272;28;20902;-41
2021/05/16 09:10:49;;;;;;;5.50;1.13;;;;;;;12.43;58.91;95540.41;4977578;28;20456;-35
2021/05/16 09:13:19;;;;;;;8.63;1.50;;;;;;;12.81;58.16;95538.59;4977859;28;20977;-41
2021/05/16 09:16:01;;;;;;;8.80;1.40;;;;;;;12.45;54.79;95469.38;4977281;28;20475;-35
2021/05/16 09:18:36;;;;;;;6.57;1.40;;;;;;;12.76;56.23;95509.34;4977692;28;20897;-40
2021/05/16 09:21:28;;;;;;;8.00;1.97;;;;;;;12.76;55.88;95540.88;4958751;28;20490;-35
2021/05/16 09:24:13;;;;;;;4.20;0.90;;;;;;;12.89;55.87;95530.00;4977870;28;20938;-41
2021/05/16 09:26:52;;;;;;;4.87;1.30;;;;;;;13.06;55.14;95531.84;4977740;28;20464;-36
2021/05/16 09:29:27;;;;;;;6.27;2.27;;;;;;;13.20;55.10;95522.66;4992601;22;20801;-41
2021/05/16 09:31:57;;;;;;;6.73;1.13;;;;;;;13.32;54.08;95515.41;4994437;28;21004;-35
2021/05/16 09:34:25;;;;;;;8.93;1.67;;;;;;;13.32;52.60;95527.72;4998075;28;20465;-35
2021/05/16 09:36:54;;;;;;;4.57;1.10;;;;;;;13.28;53.45;95524.53;4996475;28;20919;-41
2021/05/16 09:39:23;;;;;;;7.83;1.43;;;;;;;13.68;52.00;95504.06;4996356;28;20438;-35
2021/05/16 09:41:55;;;;;;;9.43;1.30;;;;;;;14.17;51.32;95530.78;4995914;28;20518;-36
2021/05/16 09:44:35;;;;;;;7.80;1.00;;;;;;;13.90;52.92;95535.19;4996485;28;20836;-35
2021/05/16 09:47:12;;;;;;;7.37;1.97;;;;;;;13.59;52.94;95519.78;4996196;28;20468;-36
2021/05/16 09:49:42;;;;;;;7.27;1.53;;;;;;;14.24;49.62;95527.38;4996524;28;20437;-42
2021/05/16 09:52:11;;;;;;;6.57;1.50;;;;;;;14.15;50.05;95532.72;4996492;28;21009;-36
2021/05/16 09:54:58;;;;;;;6.03;1.30;;;;;;;13.67;50.78;95508.50;4997162;28;20458;-36
2021/05/16 09:57:27;;;;;;;2.40;1.13;;;;;;;13.70;51.01;95515.25;4993270;28;20971;-43
2021/05/16 09:59:55;;;;;;;6.20;1.40;;;;;;;13.88;50.19;95516.09;4994305;28;20440;-38
2021/05/16 10:02:26;;;;;;;3.53;1.00;;;;;;;13.96;51.49;95507.44;4995709;28;20645;-38
2021/05/16 10:04:54;;;;;;;3.53;0.83;;;;;;;13.76;52.22;95506.75;4996484;28;20994;-43
2021/05/16 10:07:23;;;;;;;4.43;1.20;;;;;;;13.60;52.85;95510.06;4996608;28;20495;-38
2021/05/16 10:09:55;;;;;;;8.63;1.30;;;;;;;13.85;52.76;95500.59;4996909;28;20831;-38
2021/05/16 10:12:25;;;;;;;4.57;1.57;;;;;;;14.00;52.39;95504.34;4993588;28;20470;-44
2021/05/16 10:14:59;;;;;;;9.53;1.30;;;;;;;13.93;52.02;95500.66;4995977;28;20906;-38
2021/05/16 10:17:30;;;;;;;2.70;1.10;;;;;;;15.10;50.16;95502.00;4994837;28;20778;-44
2021/05/16 10:20:03;;;;;;;9.67;2.00;;;;;;;15.36;49.47;95493.16;4992625;28;20516;-38
2021/05/16 10:22:38;;;;;;;5.43;1.37;;;;;;;14.71;49.64;95496.41;4994884;28;20501;-38
2021/05/16 10:25:06;;;;;;;7.90;1.23;;;;;;;14.51;50.80;95493.97;4995842;28;20539;-38
2021/05/16 10:27:42;;;;;;;3.43;1.27;;;;;;;14.82;49.07;95488.22;4977621;28;20485;-44
2021/05/16 10:30:12;;;;;;;7.27;1.40;;;;;;;15.27;48.39;95480.94;4995955;28;20485;-38
2021/05/16 10:32:51;;;;;;;6.67;1.53;;;;;;;16.01;47.64;95469.50;4996328;28;21000;-38
2021/05/16 10:35:19;;;;;;;6.67;1.63;;;;;;;16.15;45.85;95460.06;4995488;28;20629;-38
2021/05/16 10:37:48;;;;;;;5.60;1.63;;;;;;;15.74;46.61;95444.25;4997011;28;20938;-45
2021/05/16 10:40:42;;;;;;;6.60;1.57;;;;;;;15.88;45.33;95471.81;4996199;28;20470;-45
2021/05/16 10:43:27;;;;;;;1.90;0.90;;;;;;;15.76;44.09;95471.31;4994911;28;20712;-44
2021/05/16 10:45:55;;;;;;;8.53;1.77;;;;;;;15.03;46.37;95478.09;4993487;28;20862;-39
2021/05/16 10:48:32;;;;;;;7.10;1.00;;;;;;;14.42;46.96;95477.28;4994192;28;20447;-38
2021/05/16 10:51:00;;;;;;;8.20;1.03;;;;;;;14.43;48.69;95462.31;4994535;28;20458;-38
2021/05/16 10:53:43;;;;;;;3.53;1.00;;;;;;;14.49;47.45;95461.69;4996788;28;20534;-38
2021/05/16 10:56:19;;;;;;;4.50;1.00;;;;;;;14.68;47.34;95458.03;4993510;28;20763;-38
2021/05/16 10:58:49;;;;;;;4.77;1.37;;;;;;;14.62;48.54;95450.75;4993667;28;20462;-44
2021/05/16 11:01:18;;;;;;;5.20;1.17;;;;;;;14.48;48.19;95448.66;4994605;28;20477;-38
2021/05/16 11:03:56;;;;;;;2.77;1.00;;;;;;;14.15;49.25;95444.06;4995652;28;20913;-38
2021/05/16 11:06:44;;;;;;;8.33;3.67;;;;;;;14.21;49.21;95442.59;4991703;28;20514;-38
2021/05/16 11:09:14;;;;;;;13.27;1.73;;;;;;;13.97;49.41;95446.72;4995448;28;20969;-43
2021/05/16 11:11:57;;;;;;;4.17;1.40;;;;;;;14.44;50.15;95443.75;4994990;28;20467;-43
2021/05/16 11:14:27;;;;;;;3.97;1.30;;;;;;;14.34;48.92;95443.00;4992485;28;20453;-45
2021/05/16 11:16:58;;;;;;;2.47;1.00;;;;;;;14.38;51.87;95444.34;5000773;28;20473;-42
2021/05/16 11:19:32;;;;;;;3.57;0.97;;;;;;;14.82;50.58;95430.25;4974053;28;20909;-42
2021/05/16 11:22:10;;;;;;;3.97;0.90;;;;;;;15.26;51.08;95424.72;4994705;28;20865;-37
2021/05/16 11:24:46;;;;;;;3.50;1.10;;;;;;;15.47;50.84;95405.78;4991898;28;20975;-37
2021/05/16 11:27:20;;;;;;;3.47;0.83;;;;;;;16.35;49.57;95401.56;4977122;28;20786;-43
2021/05/16 11:29:59;;;;;;;3.43;1.03;;;;;;;17.09;45.36;95393.31;4995248;28;20563;-44
2021/05/16 11:32:30;;;;;;;9.13;2.00;;;;;;;17.09;45.24;95383.56;4992723;28;20817;-42
2021/05/16 11:35:04;;;;;;;3.73;0.90;;;;;;;17.46;43.06;95383.78;4995192;28;21139;-36
2021/05/16 11:37:32;;;;;;;7.33;0.80;;;;;;;17.42;42.91;95383.31;4995131;28;20976;-36
2021/05/16 11:40:18;;;;;;;3.43;1.27;;;;;;;17.95;40.83;95363.03;4994966;28;20528;-43
2021/05/16 11:42:48;;;;;;;6.63;1.17;;;;;;;18.18;41.09;95351.53;4981393;28;20856;-42
2021/05/16 11:45:17;;;;;;;3.97;1.00;;;;;;;18.68;40.67;95357.03;4994409;28;20976;-42
2021/05/16 11:47:45;;;;;;;5.20;1.40;;;;;;;18.30;41.91;95363.31;4995024;28;20451;-36
2021/05/16 11:50:14;;;;;;;9.17;1.30;;;;;;;18.60;39.98;95346.56;4994426;28;20734;-42